createdAt,value
2023-04-11T00:01:26.332Z,70.87
2023-04-11T00:03:55.057Z,72.42
2023-04-11T00:06:24.853Z,72.34
2023-04-11T00:08:52.915Z,72.47
2023-04-11T00:11:21.214Z,71.54
2023-04-11T00:13:49.039Z,70.61
2023-04-11T00:16:19.500Z,70.68
2023-04-11T00:18:47.359Z,70.08
2023-04-11T00:21:15.072Z,70.88
2023-04-11T00:23:44.487Z,71.57
2023-04-11T00:26:12.209Z,70.41
2023-04-11T00:28:41.097Z,71.00
2023-04-11T00:31:09.100Z,70.20
2023-04-11T00:33:37.865Z,70.31
2023-04-11T00:36:07.155Z,70.26
2023-04-11T00:38:34.985Z,69.91
2023-04-11T00:41:04.287Z,70.18
2023-04-11T00:43:32.481Z,70.06
2023-04-11T00:46:00.950Z,70.48
2023-04-11T00:48:29.500Z,70.24
2023-04-11T00:50:57.675Z,70.48
2023-04-11T00:53:25.476Z,70.38
2023-04-11T00:55:53.298Z,70.50
2023-04-11T00:58:22.471Z,70.39
2023-04-11T01:00:51.450Z,69.83
2023-04-11T01:03:19.987Z,69.88
2023-04-11T01:05:53.989Z,69.95
2023-04-11T01:08:23.426Z,70.33
2023-04-11T01:10:51.422Z,70.46
2023-04-11T01:13:22.510Z,70.14
2023-04-11T01:15:50.399Z,70.02
2023-04-11T01:18:18.268Z,70.52
2023-04-11T01:20:47.247Z,70.53
2023-04-11T01:23:16.177Z,70.31
2023-04-11T01:25:45.571Z,70.51
2023-04-11T01:28:14.246Z,70.40
2023-04-11T01:30:42.174Z,70.12
2023-04-11T01:33:10.878Z,69.81
2023-04-11T01:35:39.295Z,68.82
2023-04-11T01:38:07.324Z,68.83
2023-04-11T01:40:36.021Z,68.58
2023-04-11T01:43:08.142Z,68.81
2023-04-11T01:45:36.568Z,69.78
2023-04-11T01:48:07.178Z,69.44
2023-04-11T01:50:35.763Z,69.88
2023-04-11T01:53:03.783Z,70.77
2023-04-11T01:55:31.816Z,71.11
2023-04-11T01:57:59.624Z,70.49
2023-04-11T02:00:28.825Z,71.20
2023-04-11T02:02:57.152Z,71.28
2023-04-11T02:05:25.101Z,71.86
2023-04-11T02:07:52.952Z,72.31
2023-04-11T02:10:20.875Z,72.80
2023-04-11T02:12:48.704Z,72.71
2023-04-11T02:15:16.632Z,72.70
2023-04-11T02:17:46.152Z,72.04
2023-04-11T02:20:15.379Z,72.03
2023-04-11T02:22:43.171Z,73.00
2023-04-11T02:25:11.070Z,73.17
2023-04-11T02:27:38.842Z,72.87
2023-04-11T02:30:07.858Z,72.66
2023-04-11T02:32:36.276Z,72.20
2023-04-11T02:35:07.660Z,72.34
2023-04-11T02:37:35.821Z,72.59
2023-04-11T02:40:05.536Z,72.60
2023-04-11T02:42:33.454Z,72.83
2023-04-11T02:45:01.716Z,72.52
2023-04-11T02:47:30.241Z,72.98
2023-04-11T02:50:03.003Z,73.70
2023-04-11T02:52:39.500Z,73.91
2023-04-11T02:55:07.640Z,74.09
2023-04-11T02:57:35.870Z,73.79
2023-04-11T03:00:07.042Z,73.29
2023-04-11T03:02:44.391Z,73.26
2023-04-11T03:05:12.944Z,72.45
2023-04-11T03:07:44.354Z,73.30
2023-04-11T03:10:12.273Z,73.34
2023-04-11T03:12:40.132Z,74.77
2023-04-11T03:15:10.613Z,75.77
2023-04-11T03:17:38.373Z,75.84
2023-04-11T03:20:09.286Z,75.79
2023-04-11T03:22:37.116Z,75.88
2023-04-11T03:25:08.670Z,76.19
2023-04-11T03:27:36.743Z,75.28
2023-04-11T03:30:06.501Z,75.11
2023-04-11T03:32:42.426Z,74.61
2023-04-11T03:35:10.936Z,74.54
2023-04-11T03:37:42.397Z,73.94
2023-04-11T03:40:12.386Z,74.17
2023-04-11T03:42:44.582Z,74.35
2023-04-11T03:45:16.773Z,74.21
2023-04-11T03:47:44.812Z,74.31
2023-04-11T03:50:14.443Z,74.61
2023-04-11T03:52:47.063Z,74.04
2023-04-11T03:55:19.207Z,73.75
2023-04-11T03:57:47.339Z,73.90
2023-04-11T04:00:15.834Z,73.79
2023-04-11T04:02:49.587Z,72.73
2023-04-11T04:05:17.782Z,72.85
2023-04-11T04:07:45.765Z,73.24
2023-04-11T04:10:23.589Z,74.06
2023-04-11T04:12:54.024Z,73.89
2023-04-11T04:15:24.949Z,73.94
2023-04-11T04:17:53.875Z,73.54
2023-04-11T04:20:36.415Z,72.79
2023-04-11T04:23:05.548Z,73.12
2023-04-11T04:25:52.418Z,72.88
2023-04-11T04:28:25.943Z,72.47
2023-04-11T04:30:58.181Z,71.63
2023-04-11T04:33:33.072Z,72.19
2023-04-11T04:36:04.434Z,71.66
2023-04-11T04:38:38.412Z,71.34
2023-04-11T04:41:15.073Z,71.18
2023-04-11T04:43:46.756Z,70.89
2023-04-11T04:46:21.549Z,71.48
2023-04-11T04:48:51.752Z,71.77
2023-04-11T04:51:19.893Z,70.98
2023-04-11T04:53:47.965Z,70.75
2023-04-11T04:56:17.873Z,70.18
2023-04-11T04:58:48.941Z,71.23
2023-04-11T05:01:20.565Z,71.00
2023-04-11T05:03:59.029Z,71.26
2023-04-11T05:06:39.847Z,71.72
2023-04-11T05:09:07.685Z,71.96
2023-04-11T05:11:37.585Z,72.38
2023-04-11T05:14:05.547Z,71.94
2023-04-11T05:16:33.595Z,71.70
2023-04-11T05:19:01.454Z,71.54
2023-04-11T05:21:31.422Z,71.74
2023-04-11T05:23:59.255Z,71.27
2023-04-11T05:26:27.825Z,70.40
2023-04-11T05:28:57.077Z,70.23
2023-04-11T05:31:28.845Z,70.73
2023-04-11T05:33:58.153Z,71.64
2023-04-11T05:36:28.347Z,71.73
2023-04-11T05:38:56.570Z,72.59
2023-04-11T05:41:25.387Z,73.36
2023-04-11T05:43:53.182Z,73.34
2023-04-11T05:46:22.406Z,73.68
2023-04-11T05:48:50.411Z,73.90
2023-04-11T05:51:18.366Z,73.77
2023-04-11T05:53:46.340Z,74.31
2023-04-11T05:56:14.258Z,74.47
2023-04-11T05:58:43.374Z,75.51
2023-04-11T06:01:14.658Z,76.23
2023-04-11T06:03:44.344Z,76.17
2023-04-11T06:06:12.653Z,76.24
2023-04-11T06:08:40.633Z,75.61
2023-04-11T06:11:08.699Z,75.68
2023-04-11T06:13:36.584Z,75.10
2023-04-11T06:16:06.483Z,75.43
2023-04-11T06:18:34.356Z,75.28
2023-04-11T06:21:03.704Z,75.74
2023-04-11T06:23:31.501Z,75.09
2023-04-11T06:25:59.264Z,75.33
2023-04-11T06:28:27.176Z,74.63
2023-04-11T06:30:55.241Z,74.22
2023-04-11T06:33:23.264Z,74.47
2023-04-11T06:35:51.580Z,73.42
2023-04-11T06:38:21.115Z,73.74
2023-04-11T06:40:51.559Z,72.93
2023-04-11T06:43:19.534Z,73.01
2023-04-11T06:45:48.001Z,72.90
2023-04-11T06:48:17.858Z,72.90
2023-04-11T06:50:46.460Z,73.45
2023-04-11T06:53:14.213Z,74.34
2023-04-11T06:55:43.366Z,74.74
2023-04-11T06:58:11.129Z,74.86
2023-04-11T07:00:39.181Z,74.53
2023-04-11T07:03:08.503Z,74.78
2023-04-11T07:05:38.286Z,73.66
2023-04-11T07:08:07.311Z,72.75
2023-04-11T07:10:35.237Z,72.14
2023-04-11T07:13:04.632Z,70.73
2023-04-11T07:15:32.429Z,71.22
2023-04-11T07:18:00.703Z,71.01
2023-04-11T07:20:28.816Z,71.19
2023-04-11T07:22:56.757Z,70.47
2023-04-11T07:25:30.489Z,70.00
2023-04-11T07:27:58.604Z,69.60
2023-04-11T07:30:27.930Z,69.43
2023-04-11T07:32:55.923Z,68.39
2023-04-11T07:35:24.120Z,68.27
2023-04-11T07:37:53.644Z,68.24
2023-04-11T07:40:22.049Z,68.80
2023-04-11T07:42:50.018Z,67.89
2023-04-11T07:45:18.053Z,67.72
2023-04-11T07:47:47.992Z,67.58
2023-04-11T07:50:15.975Z,66.52
2023-04-11T07:52:43.945Z,65.88
2023-04-11T07:55:12.189Z,66.17
2023-04-11T07:57:40.244Z,64.91
2023-04-11T08:00:11.530Z,63.07
2023-04-11T08:02:39.928Z,62.88
2023-04-11T08:05:11.204Z,63.89
2023-04-11T08:07:39.244Z,64.40
2023-04-11T08:10:08.467Z,64.57
2023-04-11T08:12:36.354Z,65.67
2023-04-11T08:15:04.946Z,65.70
2023-04-11T08:17:37.764Z,65.12
2023-04-11T08:20:08.404Z,64.00
2023-04-11T08:22:39.014Z,64.00
2023-04-11T08:25:08.765Z,64.27
2023-04-11T08:27:36.837Z,64.56
2023-04-11T08:30:06.104Z,65.75
2023-04-11T08:32:33.871Z,66.65
2023-04-11T08:35:01.818Z,66.76
2023-04-11T08:37:29.681Z,67.42
2023-04-11T08:39:59.309Z,66.54
2023-04-11T08:42:28.532Z,67.63
2023-04-11T08:44:57.996Z,67.19
2023-04-11T08:47:26.653Z,64.90
2023-04-11T08:49:56.528Z,65.06
2023-04-11T08:52:24.982Z,63.40
2023-04-11T08:54:55.907Z,63.23
2023-04-11T08:57:31.378Z,61.74
2023-04-11T09:00:07.348Z,62.14
2023-04-11T09:02:35.217Z,61.47
2023-04-11T09:05:03.191Z,60.37
2023-04-11T09:07:31.222Z,61.76
2023-04-11T09:09:59.339Z,62.93
2023-04-11T09:12:30.982Z,62.68
2023-04-11T09:14:58.735Z,62.31
2023-04-11T09:17:26.586Z,62.56
2023-04-11T09:19:54.418Z,61.96
2023-04-11T09:22:35.862Z,62.24
2023-04-11T09:25:04.498Z,62.90
2023-04-11T09:27:33.691Z,62.16
2023-04-11T09:30:03.718Z,63.38
2023-04-11T09:32:34.108Z,65.54
2023-04-11T09:35:20.883Z,66.11
2023-04-11T09:37:50.316Z,66.48
2023-04-11T09:40:21.327Z,67.16
2023-04-11T09:42:57.667Z,67.03
2023-04-11T09:45:26.722Z,66.85
2023-04-11T09:47:56.714Z,66.26
2023-04-11T09:50:25.758Z,65.70
2023-04-11T09:52:57.663Z,65.04
2023-04-11T09:55:27.358Z,66.18
2023-04-11T09:57:56.705Z,67.16
2023-04-11T10:00:29.335Z,66.44
2023-04-11T10:02:58.008Z,67.00
2023-04-11T10:05:28.256Z,65.19
2023-04-11T10:08:03.929Z,65.13
2023-04-11T10:10:32.273Z,65.34
2023-04-11T10:13:01.579Z,66.12
2023-04-11T10:15:30.053Z,66.83
2023-04-11T10:18:13.871Z,66.79
2023-04-11T10:20:43.654Z,66.14
2023-04-11T10:23:12.597Z,66.44
2023-04-11T10:25:55.722Z,66.54
2023-04-11T10:28:43.032Z,67.68
2023-04-11T10:31:13.938Z,67.83
2023-04-11T10:34:15.287Z,68.64
2023-04-11T10:37:06.023Z,66.91
2023-04-11T10:40:10.054Z,67.82
2023-04-11T10:42:39.992Z,68.07
2023-04-11T10:45:21.944Z,67.79
2023-04-11T10:48:10.328Z,67.43
2023-04-11T10:50:44.426Z,67.33
2023-04-11T10:53:37.257Z,68.11
2023-04-11T10:56:06.049Z,67.27
2023-04-11T10:58:39.478Z,67.66
2023-04-11T11:01:31.572Z,67.83
2023-04-11T11:04:06.294Z,68.45
2023-04-11T11:06:46.226Z,69.88
2023-04-11T11:09:24.461Z,69.30
2023-04-11T11:12:09.221Z,69.57
2023-04-11T11:14:37.433Z,68.95
2023-04-11T11:17:07.874Z,69.00
2023-04-11T11:19:36.669Z,68.04
2023-04-11T11:22:06.265Z,68.26
2023-04-11T11:24:34.145Z,67.44
2023-04-11T11:27:01.914Z,68.44
2023-04-11T11:29:34.508Z,68.06
2023-04-11T11:32:03.976Z,67.52
2023-04-11T11:34:34.356Z,66.62
2023-04-11T11:37:04.733Z,67.37
2023-04-11T11:39:33.919Z,66.61
2023-04-11T11:42:02.196Z,67.11
2023-04-11T11:44:32.085Z,65.76
2023-04-11T11:47:04.222Z,66.65
2023-04-11T11:49:47.091Z,65.97
2023-04-11T11:52:33.050Z,64.70
2023-04-11T11:55:01.706Z,64.13
2023-04-11T11:57:29.522Z,64.19
2023-04-11T11:59:58.634Z,64.45
2023-04-11T12:02:27.413Z,63.52
2023-04-11T12:05:00.036Z,62.48
2023-04-11T12:07:32.371Z,62.02
2023-04-11T12:10:01.349Z,63.63
2023-04-11T12:12:37.270Z,64.09
2023-04-11T12:15:12.103Z,64.67
2023-04-11T12:17:41.363Z,65.18
2023-04-11T12:20:11.609Z,66.13
2023-04-11T12:22:39.717Z,65.50
2023-04-11T12:25:08.852Z,65.07
2023-04-11T12:27:37.790Z,64.88
2023-04-11T12:30:06.877Z,64.38
2023-04-11T12:32:35.111Z,63.81
2023-04-11T12:35:03.474Z,63.56
2023-04-11T12:37:33.025Z,61.76
2023-04-11T12:40:01.440Z,61.27
2023-04-11T12:42:29.525Z,61.62
2023-04-11T12:44:57.709Z,60.91
2023-04-11T12:47:25.749Z,61.51
2023-04-11T12:49:54.138Z,61.45
2023-04-11T12:52:22.529Z,61.82
2023-04-11T12:54:52.001Z,61.64
2023-04-11T12:57:20.061Z,61.16
2023-04-11T12:59:48.329Z,62.65
2023-04-11T13:02:16.410Z,62.02
2023-04-11T13:04:44.283Z,62.76
2023-04-11T13:07:12.522Z,62.52
2023-04-11T13:09:40.472Z,62.19
2023-04-11T13:12:09.671Z,62.31
2023-04-11T13:14:37.679Z,61.94
2023-04-11T13:17:05.574Z,62.05
2023-04-11T13:19:33.436Z,63.01
2023-04-11T13:22:01.208Z,63.96
2023-04-11T13:24:29.453Z,63.28
2023-04-11T13:26:58.953Z,63.32
2023-04-11T13:29:28.321Z,63.44
2023-04-11T13:31:57.248Z,63.23
2023-04-11T13:34:25.326Z,60.85
2023-04-11T13:36:53.211Z,60.23
2023-04-11T13:39:21.199Z,59.12
2023-04-11T13:41:49.425Z,58.71
2023-04-11T13:44:17.264Z,58.74
2023-04-11T13:46:46.982Z,59.51
2023-04-11T13:49:15.036Z,59.50
2023-04-11T13:51:42.960Z,59.13
2023-04-11T13:54:11.212Z,59.93
2023-04-11T13:56:39.064Z,58.85
2023-04-11T13:59:07.086Z,59.04
2023-04-11T14:01:35.061Z,59.27
2023-04-11T14:04:04.467Z,58.63
2023-04-11T14:06:32.444Z,57.91
2023-04-11T14:09:00.508Z,57.17
2023-04-11T14:11:28.356Z,57.90
2023-04-11T14:13:56.644Z,57.09
2023-04-11T14:16:24.704Z,55.31
2023-04-11T14:18:52.581Z,54.56
2023-04-11T14:21:23.631Z,54.51
2023-04-11T14:23:51.456Z,54.61
2023-04-11T14:26:19.303Z,54.97
2023-04-11T14:28:47.161Z,54.26
2023-04-11T14:31:17.643Z,54.67
2023-04-11T14:33:45.843Z,52.60
2023-04-11T14:36:14.344Z,52.78
2023-04-11T14:38:43.762Z,52.03
2023-04-11T14:41:11.537Z,51.85
2023-04-11T14:43:39.416Z,50.99
2023-04-11T14:46:07.952Z,51.32
2023-04-11T14:48:36.086Z,52.04
2023-04-11T14:51:05.460Z,51.67
2023-04-11T14:53:33.625Z,51.11
2023-04-11T14:56:05.670Z,50.47
2023-04-11T14:58:33.644Z,51.28
2023-04-11T15:01:01.429Z,50.95
2023-04-11T15:03:29.515Z,49.85
2023-04-11T15:05:57.885Z,49.36
2023-04-11T15:08:26.244Z,50.41
2023-04-11T15:10:55.067Z,50.88
2023-04-11T15:13:25.372Z,50.76
2023-04-11T15:15:53.624Z,52.20
2023-04-11T15:18:27.035Z,51.32
2023-04-11T15:20:56.455Z,49.61
2023-04-11T15:23:24.597Z,49.95
2023-04-11T15:25:56.821Z,48.71
2023-04-11T15:28:27.646Z,49.06
2023-04-11T15:30:56.522Z,50.79
2023-04-11T15:33:24.763Z,48.16
2023-04-11T15:35:54.320Z,47.80
2023-04-11T15:38:22.930Z,46.78
2023-04-11T15:40:51.839Z,47.20
2023-04-11T15:43:21.751Z,47.35
2023-04-11T15:45:52.557Z,46.25
2023-04-11T15:48:20.951Z,45.72
2023-04-11T15:50:48.832Z,46.91
2023-04-11T15:53:16.778Z,45.81
2023-04-11T15:55:47.022Z,45.62
2023-04-11T15:58:14.852Z,46.05
2023-04-11T16:00:43.908Z,45.92
2023-04-11T16:03:14.468Z,46.61
2023-04-11T16:05:43.302Z,46.25
2023-04-11T16:08:11.678Z,46.31
2023-04-11T16:10:39.656Z,46.17
2023-04-11T16:13:07.550Z,45.74
2023-04-11T16:15:36.111Z,43.67
2023-04-11T16:18:04.294Z,44.42
2023-04-11T16:20:35.072Z,44.77
2023-04-11T16:23:03.201Z,44.63
2023-04-11T16:25:31.679Z,44.44
2023-04-11T16:27:59.626Z,44.56
2023-04-11T16:30:27.977Z,45.64
2023-04-11T16:32:56.613Z,45.37
2023-04-11T16:35:24.692Z,45.61
2023-04-11T16:37:53.879Z,44.37
2023-04-11T16:40:22.144Z,42.60
2023-04-11T16:42:49.966Z,41.66
2023-04-11T16:45:18.157Z,41.32
2023-04-11T16:47:46.059Z,40.51
2023-04-11T16:50:14.075Z,41.20
2023-04-11T16:52:41.966Z,40.77
2023-04-11T16:55:12.019Z,41.11
2023-04-11T16:57:40.437Z,41.42
2023-04-11T17:00:13.565Z,41.17
2023-04-11T17:02:41.846Z,42.18
2023-04-11T17:05:10.368Z,41.57
2023-04-11T17:07:38.349Z,42.20
2023-04-11T17:10:07.920Z,41.53
2023-04-11T17:12:37.433Z,41.18
2023-04-11T17:15:07.057Z,42.26
2023-04-11T17:17:34.904Z,42.67
2023-04-11T17:20:09.327Z,41.90
2023-04-11T17:22:39.221Z,42.19
2023-04-11T17:25:08.031Z,42.41
2023-04-11T17:27:37.255Z,41.61
2023-04-11T17:30:05.940Z,41.96
2023-04-11T17:32:35.280Z,42.14
2023-04-11T17:35:04.631Z,42.31
2023-04-11T17:37:32.705Z,41.20
2023-04-11T17:40:00.936Z,40.31
2023-04-11T17:42:28.829Z,40.50
2023-04-11T17:45:03.769Z,40.86
2023-04-11T17:47:37.964Z,41.44
2023-04-11T17:50:09.769Z,41.23
2023-04-11T17:52:38.070Z,41.18
2023-04-11T17:55:07.567Z,41.40
2023-04-11T17:57:35.492Z,41.40
2023-04-11T18:00:08.596Z,41.23
2023-04-11T18:02:39.038Z,41.03
2023-04-11T18:05:22.417Z,42.13
2023-04-11T18:07:52.108Z,42.25
2023-04-11T18:10:22.285Z,42.38
2023-04-11T18:12:52.279Z,42.95
2023-04-11T18:15:23.253Z,42.62
2023-04-11T18:17:52.594Z,42.26
2023-04-11T18:20:21.137Z,42.30
2023-04-11T18:22:51.777Z,42.32
2023-04-11T18:25:19.936Z,42.91
2023-04-11T18:27:48.076Z,43.35
2023-04-11T18:30:17.393Z,43.33
2023-04-11T18:32:49.415Z,43.50
2023-04-11T18:35:18.640Z,43.53
2023-04-11T18:37:46.718Z,43.51
2023-04-11T18:40:16.143Z,43.52
2023-04-11T18:42:46.645Z,44.56
2023-04-11T18:45:15.646Z,44.76
2023-04-11T18:47:46.141Z,44.98
2023-04-11T18:50:15.926Z,44.65
2023-04-11T18:52:45.304Z,45.05
2023-04-11T18:55:13.171Z,45.12
2023-04-11T18:57:42.906Z,45.32
2023-04-11T19:00:18.483Z,45.72
2023-04-11T19:02:47.705Z,45.67
2023-04-11T19:05:18.014Z,46.03
2023-04-11T19:07:46.929Z,45.65
2023-04-11T19:10:14.876Z,45.60
2023-04-11T19:12:42.814Z,45.70
2023-04-11T19:15:11.872Z,46.04
2023-04-11T19:17:39.852Z,45.96
2023-04-11T19:20:12.590Z,45.75
2023-04-11T19:22:42.840Z,46.15
2023-04-11T19:25:12.238Z,46.44
2023-04-11T19:27:42.093Z,46.27
2023-04-11T19:30:11.457Z,46.43
2023-04-11T19:32:43.124Z,47.00
2023-04-11T19:35:12.746Z,47.19
2023-04-11T19:37:42.799Z,47.31
2023-04-11T19:40:14.690Z,47.68
2023-04-11T19:42:43.379Z,47.88
2023-04-11T19:45:12.167Z,48.22
2023-04-11T19:47:40.994Z,48.14
2023-04-11T19:50:13.223Z,48.46
2023-04-11T19:52:43.880Z,48.87
2023-04-11T19:55:13.294Z,48.13
2023-04-11T19:57:43.780Z,47.55
2023-04-11T20:00:14.476Z,48.16
2023-04-11T20:02:46.115Z,48.02
2023-04-11T20:05:16.305Z,48.22
2023-04-11T20:07:46.560Z,48.04
2023-04-11T20:10:16.311Z,47.89
2023-04-11T20:12:44.602Z,47.68
2023-04-11T20:15:14.781Z,47.20
2023-04-11T20:17:45.276Z,46.85
2023-04-11T20:20:16.644Z,46.38
2023-04-11T20:22:45.884Z,46.90
2023-04-11T20:25:13.945Z,45.14
2023-04-11T20:27:43.722Z,45.71
2023-04-11T20:30:13.116Z,45.37
2023-04-11T20:32:41.932Z,45.78
2023-04-11T20:35:12.324Z,46.27
2023-04-11T20:37:41.379Z,45.86
2023-04-11T20:40:13.099Z,45.01
2023-04-11T20:42:42.498Z,44.59
2023-04-11T20:45:12.662Z,43.60
2023-04-11T20:47:41.363Z,44.47
2023-04-11T20:50:13.819Z,44.22
2023-04-11T20:52:43.314Z,44.74
2023-04-11T20:55:13.693Z,45.41
2023-04-11T20:57:42.145Z,44.65
2023-04-11T21:00:16.455Z,45.06
2023-04-11T21:02:45.962Z,45.01
2023-04-11T21:05:14.642Z,44.36
2023-04-11T21:07:43.094Z,44.60
2023-04-11T21:10:13.129Z,44.92
2023-04-11T21:12:41.960Z,44.66
2023-04-11T21:15:11.731Z,44.66
2023-04-11T21:17:39.891Z,45.20
2023-04-11T21:20:17.478Z,45.86
2023-04-11T21:22:45.517Z,45.62
2023-04-11T21:25:14.988Z,45.64
2023-04-11T21:27:42.962Z,46.37
2023-04-11T21:30:11.933Z,46.62
2023-04-11T21:32:40.776Z,46.24
2023-04-11T21:35:11.184Z,46.05
2023-04-11T21:37:39.027Z,45.96
2023-04-11T21:40:08.140Z,46.26
2023-04-11T21:42:37.392Z,46.80
2023-04-11T21:45:05.775Z,46.27
2023-04-11T21:47:33.645Z,46.43
2023-04-11T21:50:01.524Z,46.43
2023-04-11T21:52:29.329Z,46.60
2023-04-11T21:54:57.181Z,46.83
2023-04-11T21:57:25.010Z,47.30
2023-04-11T21:59:54.186Z,47.07
2023-04-11T22:02:22.332Z,46.92
2023-04-11T22:05:05.069Z,47.40
2023-04-11T22:07:39.030Z,46.82
2023-04-11T22:10:10.370Z,46.89
2023-04-11T22:12:39.180Z,46.94
2023-04-11T22:15:12.405Z,47.15
2023-04-11T22:17:42.351Z,47.04
2023-04-11T22:20:11.648Z,47.06
2023-04-11T22:22:39.509Z,47.43
2023-04-11T22:25:10.183Z,47.14
2023-04-11T22:27:38.564Z,46.54
2023-04-11T22:30:11.160Z,46.84
2023-04-11T22:32:39.021Z,46.62
2023-04-11T22:35:08.221Z,46.88
2023-04-11T22:37:36.162Z,47.25
2023-04-11T22:40:06.135Z,47.36
2023-04-11T22:42:34.148Z,47.04
2023-04-11T22:45:02.015Z,46.79
2023-04-11T22:47:34.172Z,46.41
2023-04-11T22:50:03.732Z,46.72
2023-04-11T22:52:31.613Z,46.37
2023-04-11T22:54:59.463Z,46.69
2023-04-11T22:57:27.205Z,46.46
2023-04-11T22:59:55.002Z,46.60
2023-04-11T23:02:24.510Z,47.05
2023-04-11T23:04:54.060Z,47.21
2023-04-11T23:07:22.531Z,47.39
2023-04-11T23:09:52.665Z,47.18
2023-04-11T23:12:20.962Z,47.59
2023-04-11T23:14:50.403Z,47.70
2023-04-11T23:17:18.352Z,47.35
2023-04-11T23:19:47.101Z,47.96
2023-04-11T23:22:16.331Z,48.40
2023-04-11T23:24:44.072Z,48.45
2023-04-11T23:27:12.090Z,48.64
2023-04-11T23:29:40.032Z,48.35
2023-04-11T23:32:07.831Z,48.42
2023-04-11T23:34:35.801Z,48.75
2023-04-11T23:37:03.861Z,48.36
2023-04-11T23:39:33.181Z,49.23
2023-04-11T23:42:01.048Z,49.39
2023-04-11T23:44:28.862Z,49.54
2023-04-11T23:46:56.814Z,49.32
2023-04-11T23:49:24.987Z,49.26
2023-04-11T23:51:52.918Z,49.50
2023-04-11T23:54:20.787Z,50.16
2023-04-11T23:56:49.938Z,50.33
2023-04-11T23:59:17.739Z,50.53
